sensor_id;sensor_type;location;lat;lon;timestamp;P1;durP1;ratioP1;P2;durP2;ratioP2
15340;SDS011;7770;52.158;5.372;2022-10-17T00:00:07;20.87;;;18.93;;
15340;SDS011;7770;52.158;5.372;2022-10-17T00:02:56;22.50;;;18.83;;
15340;SDS011;7770;52.158;5.372;2022-10-17T00:05:43;20.60;;;18.50;;
15340;SDS011;7770;52.158;5.372;2022-10-17T00:08:31;21.93;;;19.83;;
15340;SDS011;7770;52.158;5.372;2022-10-17T00:11:19;21.43;;;19.43;;
15340;SDS011;7770;52.158;5.372;2022-10-17T00:14:07;22.03;;;20.07;;
15340;SDS011;7770;52.158;5.372;2022-10-17T00:16:53;21.67;;;19.53;;
15340;SDS011;7770;52.158;5.372;2022-10-17T00:19:39;21.47;;;19.50;;
15340;SDS011;7770;52.158;5.372;2022-10-17T00:22:25;21.03;;;19.03;;
15340;SDS011;7770;52.158;5.372;2022-10-17T00:25:12;22.83;;;20.53;;
15340;SDS011;7770;52.158;5.372;2022-10-17T00:27:58;20.97;;;18.97;;
15340;SDS011;7770;52.158;5.372;2022-10-17T00:30:44;23.03;;;20.83;;
15340;SDS011;7770;52.158;5.372;2022-10-17T00:33:30;22.83;;;20.47;;
15340;SDS011;7770;52.158;5.372;2022-10-17T00:36:20;23.50;;;21.20;;
15340;SDS011;7770;52.158;5.372;2022-10-17T00:39:09;22.43;;;20.50;;
15340;SDS011;7770;52.158;5.372;2022-10-17T00:41:55;23.23;;;20.97;;
15340;SDS011;7770;52.158;5.372;2022-10-17T00:47:31;22.57;;;20.30;;
15340;SDS011;7770;52.158;5.372;2022-10-17T00:50:18;22.47;;;20.50;;
15340;SDS011;7770;52.158;5.372;2022-10-17T00:53:04;23.00;;;20.90;;
15340;SDS011;7770;52.158;5.372;2022-10-17T00:55:52;22.73;;;20.63;;
15340;SDS011;7770;52.158;5.372;2022-10-17T00:58:38;23.07;;;20.90;;
15340;SDS011;7770;52.158;5.372;2022-10-17T01:01:25;22.23;;;20.03;;
15340;SDS011;7770;52.158;5.372;2022-10-17T01:04:11;22.40;;;20.40;;
15340;SDS011;7770;52.158;5.372;2022-10-17T01:06:57;22.33;;;20.10;;
15340;SDS011;7770;52.158;5.372;2022-10-17T01:09:44;22.87;;;20.87;;
15340;SDS011;7770;52.158;5.372;2022-10-17T01:12:35;22.70;;;20.13;;
15340;SDS011;7770;52.158;5.372;2022-10-17T01:18:45;23.03;;;20.83;;
15340;SDS011;7770;52.158;5.372;2022-10-17T01:21:46;23.77;;;21.63;;
15340;SDS011;7770;52.158;5.372;2022-10-17T01:24:45;23.13;;;20.93;;
15340;SDS011;7770;52.158;5.372;2022-10-17T01:37:06;24.77;;;22.37;;
15340;SDS011;7770;52.158;5.372;2022-10-17T01:40:12;24.33;;;22.00;;
15340;SDS011;7770;52.158;5.372;2022-10-17T01:43:20;24.70;;;22.47;;
15340;SDS011;7770;52.158;5.372;2022-10-17T01:46:32;25.17;;;22.87;;
15340;SDS011;7770;52.158;5.372;2022-10-17T01:49:23;24.70;;;22.43;;
15340;SDS011;7770;52.158;5.372;2022-10-17T01:52:14;25.03;;;22.53;;
15340;SDS011;7770;52.158;5.372;2022-10-17T01:58:22;25.57;;;22.57;;
15340;SDS011;7770;52.158;5.372;2022-10-17T02:01:21;25.13;;;22.63;;
15340;SDS011;7770;52.158;5.372;2022-10-17T02:04:08;24.07;;;21.67;;
15340;SDS011;7770;52.158;5.372;2022-10-17T02:06:55;25.23;;;22.87;;
15340;SDS011;7770;52.158;5.372;2022-10-17T02:09:42;25.93;;;23.43;;
15340;SDS011;7770;52.158;5.372;2022-10-17T02:15:44;26.13;;;23.57;;
15340;SDS011;7770;52.158;5.372;2022-10-17T02:25:12;27.83;;;24.93;;
15340;SDS011;7770;52.158;5.372;2022-10-17T02:28:30;25.53;;;23.07;;
15340;SDS011;7770;52.158;5.372;2022-10-17T02:31:48;25.80;;;23.27;;
15340;SDS011;7770;52.158;5.372;2022-10-17T02:34:45;26.40;;;23.90;;
15340;SDS011;7770;52.158;5.372;2022-10-17T02:37:35;27.40;;;24.80;;
15340;SDS011;7770;52.158;5.372;2022-10-17T02:40:22;27.70;;;24.93;;
15340;SDS011;7770;52.158;5.372;2022-10-17T02:43:10;27.07;;;24.37;;
15340;SDS011;7770;52.158;5.372;2022-10-17T02:45:57;27.67;;;25.00;;
15340;SDS011;7770;52.158;5.372;2022-10-17T02:48:45;27.20;;;24.70;;
15340;SDS011;7770;52.158;5.372;2022-10-17T02:51:44;28.30;;;25.50;;
15340;SDS011;7770;52.158;5.372;2022-10-17T03:00:48;27.87;;;25.17;;
15340;SDS011;7770;52.158;5.372;2022-10-17T03:03:36;29.37;;;26.60;;
15340;SDS011;7770;52.158;5.372;2022-10-17T03:06:22;28.03;;;25.53;;
15340;SDS011;7770;52.158;5.372;2022-10-17T03:09:08;28.97;;;26.00;;
15340;SDS011;7770;52.158;5.372;2022-10-17T03:11:54;28.83;;;25.93;;
15340;SDS011;7770;52.158;5.372;2022-10-17T03:14:40;27.57;;;24.77;;
15340;SDS011;7770;52.158;5.372;2022-10-17T03:17:26;27.47;;;24.53;;
15340;SDS011;7770;52.158;5.372;2022-10-17T03:20:12;26.40;;;23.93;;
15340;SDS011;7770;52.158;5.372;2022-10-17T03:22:58;26.87;;;24.27;;
15340;SDS011;7770;52.158;5.372;2022-10-17T03:25:44;26.37;;;23.83;;
15340;SDS011;7770;52.158;5.372;2022-10-17T03:28:30;26.27;;;23.77;;
15340;SDS011;7770;52.158;5.372;2022-10-17T03:31:16;25.77;;;23.43;;
15340;SDS011;7770;52.158;5.372;2022-10-17T03:34:02;24.73;;;22.43;;
15340;SDS011;7770;52.158;5.372;2022-10-17T03:36:48;24.83;;;22.43;;
15340;SDS011;7770;52.158;5.372;2022-10-17T03:39:34;25.60;;;23.10;;
15340;SDS011;7770;52.158;5.372;2022-10-17T03:42:20;24.90;;;22.60;;
15340;SDS011;7770;52.158;5.372;2022-10-17T03:45:07;24.00;;;21.70;;
15340;SDS011;7770;52.158;5.372;2022-10-17T03:47:54;25.23;;;22.67;;
15340;SDS011;7770;52.158;5.372;2022-10-17T03:50:40;24.37;;;21.83;;
15340;SDS011;7770;52.158;5.372;2022-10-17T03:53:26;23.47;;;21.20;;
15340;SDS011;7770;52.158;5.372;2022-10-17T03:56:14;26.43;;;21.23;;
15340;SDS011;7770;52.158;5.372;2022-10-17T03:59:06;22.87;;;20.67;;
15340;SDS011;7770;52.158;5.372;2022-10-17T04:01:52;24.10;;;21.43;;
15340;SDS011;7770;52.158;5.372;2022-10-17T04:04:38;23.17;;;20.90;;
15340;SDS011;7770;52.158;5.372;2022-10-17T04:07:24;24.90;;;20.40;;
15340;SDS011;7770;52.158;5.372;2022-10-17T04:10:10;23.87;;;21.63;;
15340;SDS011;7770;52.158;5.372;2022-10-17T04:12:57;23.23;;;21.07;;
15340;SDS011;7770;52.158;5.372;2022-10-17T04:15:56;23.17;;;20.77;;
15340;SDS011;7770;52.158;5.372;2022-10-17T04:18:44;22.90;;;20.90;;
15340;SDS011;7770;52.158;5.372;2022-10-17T04:21:30;24.37;;;22.07;;
15340;SDS011;7770;52.158;5.372;2022-10-17T04:24:16;22.90;;;20.80;;
15340;SDS011;7770;52.158;5.372;2022-10-17T04:27:02;22.87;;;20.57;;
15340;SDS011;7770;52.158;5.372;2022-10-17T04:29:48;22.60;;;20.40;;
15340;SDS011;7770;52.158;5.372;2022-10-17T04:32:35;22.07;;;19.87;;
15340;SDS011;7770;52.158;5.372;2022-10-17T04:35:23;23.13;;;19.97;;
15340;SDS011;7770;52.158;5.372;2022-10-17T04:38:08;22.47;;;20.07;;
15340;SDS011;7770;52.158;5.372;2022-10-17T04:41:01;22.30;;;20.10;;
15340;SDS011;7770;52.158;5.372;2022-10-17T04:43:50;21.43;;;19.60;;
15340;SDS011;7770;52.158;5.372;2022-10-17T04:46:36;22.60;;;20.33;;
15340;SDS011;7770;52.158;5.372;2022-10-17T04:49:21;21.93;;;19.83;;
15340;SDS011;7770;52.158;5.372;2022-10-17T04:52:07;21.87;;;19.77;;
15340;SDS011;7770;52.158;5.372;2022-10-17T04:54:53;22.57;;;20.27;;
15340;SDS011;7770;52.158;5.372;2022-10-17T04:57:39;22.83;;;20.47;;
15340;SDS011;7770;52.158;5.372;2022-10-17T05:00:25;22.40;;;20.23;;
15340;SDS011;7770;52.158;5.372;2022-10-17T05:03:11;20.80;;;19.00;;
15340;SDS011;7770;52.158;5.372;2022-10-17T05:05:58;20.87;;;18.87;;
15340;SDS011;7770;52.158;5.372;2022-10-17T05:09:07;21.57;;;19.60;;
15340;SDS011;7770;52.158;5.372;2022-10-17T05:11:53;21.07;;;19.03;;
15340;SDS011;7770;52.158;5.372;2022-10-17T05:14:39;21.13;;;19.23;;
15340;SDS011;7770;52.158;5.372;2022-10-17T05:17:25;21.77;;;19.80;;
15340;SDS011;7770;52.158;5.372;2022-10-17T05:20:11;21.60;;;19.33;;
15340;SDS011;7770;52.158;5.372;2022-10-17T05:22:58;20.73;;;18.53;;
15340;SDS011;7770;52.158;5.372;2022-10-17T05:25:44;20.67;;;18.63;;
15340;SDS011;7770;52.158;5.372;2022-10-17T05:28:30;21.13;;;18.80;;
15340;SDS011;7770;52.158;5.372;2022-10-17T05:31:16;20.80;;;18.70;;
15340;SDS011;7770;52.158;5.372;2022-10-17T05:34:02;23.70;;;19.43;;
15340;SDS011;7770;52.158;5.372;2022-10-17T05:36:48;20.03;;;18.27;;
15340;SDS011;7770;52.158;5.372;2022-10-17T05:39:34;20.57;;;18.37;;
15340;SDS011;7770;52.158;5.372;2022-10-17T05:42:20;20.57;;;18.57;;
15340;SDS011;7770;52.158;5.372;2022-10-17T05:45:06;20.33;;;18.40;;
15340;SDS011;7770;52.158;5.372;2022-10-17T05:47:52;20.60;;;18.50;;
15340;SDS011;7770;52.158;5.372;2022-10-17T05:50:38;19.67;;;17.63;;
15340;SDS011;7770;52.158;5.372;2022-10-17T05:53:25;20.03;;;18.07;;
15340;SDS011;7770;52.158;5.372;2022-10-17T05:56:11;24.43;;;18.03;;
15340;SDS011;7770;52.158;5.372;2022-10-17T05:58:59;20.50;;;18.37;;
15340;SDS011;7770;52.158;5.372;2022-10-17T06:01:45;20.57;;;18.47;;
15340;SDS011;7770;52.158;5.372;2022-10-17T06:04:31;20.50;;;18.40;;
15340;SDS011;7770;52.158;5.372;2022-10-17T06:07:18;19.80;;;17.73;;
15340;SDS011;7770;52.158;5.372;2022-10-17T06:10:04;20.63;;;18.60;;
15340;SDS011;7770;52.158;5.372;2022-10-17T06:12:51;21.07;;;19.03;;
15340;SDS011;7770;52.158;5.372;2022-10-17T06:15:37;20.97;;;18.97;;
15340;SDS011;7770;52.158;5.372;2022-10-17T06:18:23;22.80;;;19.77;;
15340;SDS011;7770;52.158;5.372;2022-10-17T06:21:10;21.63;;;19.60;;
15340;SDS011;7770;52.158;5.372;2022-10-17T06:23:57;21.70;;;19.60;;
15340;SDS011;7770;52.158;5.372;2022-10-17T06:26:43;21.70;;;19.50;;
15340;SDS011;7770;52.158;5.372;2022-10-17T06:29:31;24.63;;;20.13;;
15340;SDS011;7770;52.158;5.372;2022-10-17T06:32:17;23.77;;;19.80;;
15340;SDS011;7770;52.158;5.372;2022-10-17T06:35:03;20.60;;;18.53;;
15340;SDS011;7770;52.158;5.372;2022-10-17T06:37:49;21.40;;;19.30;;
15340;SDS011;7770;52.158;5.372;2022-10-17T06:40:35;20.23;;;18.27;;
15340;SDS011;7770;52.158;5.372;2022-10-17T06:43:21;20.93;;;18.73;;
15340;SDS011;7770;52.158;5.372;2022-10-17T06:46:07;20.23;;;18.33;;
15340;SDS011;7770;52.158;5.372;2022-10-17T06:48:54;21.00;;;18.90;;
15340;SDS011;7770;52.158;5.372;2022-10-17T06:51:40;20.57;;;18.60;;
15340;SDS011;7770;52.158;5.372;2022-10-17T06:54:26;19.53;;;17.63;;
15340;SDS011;7770;52.158;5.372;2022-10-17T06:57:12;19.63;;;17.50;;
15340;SDS011;7770;52.158;5.372;2022-10-17T06:59:58;19.77;;;17.77;;
15340;SDS011;7770;52.158;5.372;2022-10-17T07:02:44;20.00;;;17.87;;
15340;SDS011;7770;52.158;5.372;2022-10-17T07:05:30;19.43;;;17.43;;
15340;SDS011;7770;52.158;5.372;2022-10-17T07:08:16;19.53;;;17.83;;
15340;SDS011;7770;52.158;5.372;2022-10-17T07:11:09;23.43;;;16.53;;
15340;SDS011;7770;52.158;5.372;2022-10-17T07:14:00;18.13;;;16.43;;
15340;SDS011;7770;52.158;5.372;2022-10-17T07:16:46;18.17;;;16.27;;
15340;SDS011;7770;52.158;5.372;2022-10-17T07:19:33;19.37;;;17.37;;
15340;SDS011;7770;52.158;5.372;2022-10-17T07:22:19;19.07;;;17.17;;
15340;SDS011;7770;52.158;5.372;2022-10-17T07:25:05;18.87;;;17.03;;
15340;SDS011;7770;52.158;5.372;2022-10-17T07:27:52;17.90;;;16.17;;
15340;SDS011;7770;52.158;5.372;2022-10-17T07:30:38;18.00;;;16.30;;
15340;SDS011;7770;52.158;5.372;2022-10-17T07:33:24;18.47;;;16.57;;
15340;SDS011;7770;52.158;5.372;2022-10-17T07:36:11;18.63;;;16.80;;
15340;SDS011;7770;52.158;5.372;2022-10-17T07:38:57;18.47;;;16.57;;
15340;SDS011;7770;52.158;5.372;2022-10-17T07:41:43;18.67;;;17.03;;
15340;SDS011;7770;52.158;5.372;2022-10-17T07:44:29;18.00;;;16.20;;
15340;SDS011;7770;52.158;5.372;2022-10-17T07:47:15;19.70;;;17.70;;
15340;SDS011;7770;52.158;5.372;2022-10-17T07:50:02;19.43;;;16.50;;
15340;SDS011;7770;52.158;5.372;2022-10-17T07:52:49;19.17;;;17.20;;
15340;SDS011;7770;52.158;5.372;2022-10-17T07:55:36;18.73;;;16.83;;
15340;SDS011;7770;52.158;5.372;2022-10-17T07:58:23;19.13;;;17.23;;
15340;SDS011;7770;52.158;5.372;2022-10-17T08:01:10;18.07;;;16.27;;
15340;SDS011;7770;52.158;5.372;2022-10-17T08:03:58;18.57;;;16.87;;
15340;SDS011;7770;52.158;5.372;2022-10-17T08:06:44;19.13;;;17.07;;
15340;SDS011;7770;52.158;5.372;2022-10-17T08:09:30;19.73;;;17.63;;
15340;SDS011;7770;52.158;5.372;2022-10-17T08:12:16;20.03;;;16.73;;
15340;SDS011;7770;52.158;5.372;2022-10-17T08:15:03;19.07;;;16.73;;
15340;SDS011;7770;52.158;5.372;2022-10-17T08:17:51;17.80;;;16.13;;
15340;SDS011;7770;52.158;5.372;2022-10-17T08:20:40;18.70;;;16.73;;
15340;SDS011;7770;52.158;5.372;2022-10-17T08:23:26;20.07;;;17.47;;
15340;SDS011;7770;52.158;5.372;2022-10-17T08:26:17;19.07;;;17.27;;
15340;SDS011;7770;52.158;5.372;2022-10-17T08:29:04;20.60;;;18.30;;
15340;SDS011;7770;52.158;5.372;2022-10-17T08:31:50;21.23;;;19.00;;
15340;SDS011;7770;52.158;5.372;2022-10-17T08:34:37;20.60;;;18.40;;
15340;SDS011;7770;52.158;5.372;2022-10-17T08:37:23;20.07;;;18.03;;
15340;SDS011;7770;52.158;5.372;2022-10-17T08:40:13;21.53;;;19.43;;
15340;SDS011;7770;52.158;5.372;2022-10-17T08:46:18;20.87;;;18.63;;
15340;SDS011;7770;52.158;5.372;2022-10-17T08:49:08;22.47;;;20.03;;
15340;SDS011;7770;52.158;5.372;2022-10-17T08:52:02;20.90;;;18.83;;
15340;SDS011;7770;52.158;5.372;2022-10-17T08:55:17;22.00;;;19.63;;
15340;SDS011;7770;52.158;5.372;2022-10-17T08:58:34;22.30;;;19.97;;
15340;SDS011;7770;52.158;5.372;2022-10-17T09:07:49;24.20;;;21.27;;
15340;SDS011;7770;52.158;5.372;2022-10-17T09:10:50;23.33;;;20.77;;
15340;SDS011;7770;52.158;5.372;2022-10-17T09:13:52;23.77;;;20.97;;
15340;SDS011;7770;52.158;5.372;2022-10-17T09:20:11;24.13;;;21.57;;
15340;SDS011;7770;52.158;5.372;2022-10-17T09:23:17;24.43;;;22.03;;
15340;SDS011;7770;52.158;5.372;2022-10-17T09:26:08;24.33;;;22.17;;
15340;SDS011;7770;52.158;5.372;2022-10-17T09:28:56;24.70;;;22.20;;
15340;SDS011;7770;52.158;5.372;2022-10-17T09:31:46;24.93;;;22.23;;
15340;SDS011;7770;52.158;5.372;2022-10-17T09:34:40;24.83;;;22.33;;
15340;SDS011;7770;52.158;5.372;2022-10-17T09:37:28;24.27;;;21.77;;
15340;SDS011;7770;52.158;5.372;2022-10-17T09:40:20;24.50;;;22.03;;
15340;SDS011;7770;52.158;5.372;2022-10-17T09:43:19;25.00;;;22.60;;
15340;SDS011;7770;52.158;5.372;2022-10-17T09:46:22;25.30;;;22.70;;
15340;SDS011;7770;52.158;5.372;2022-10-17T09:49:19;24.80;;;22.00;;
15340;SDS011;7770;52.158;5.372;2022-10-17T09:52:34;25.60;;;23.20;;
15340;SDS011;7770;52.158;5.372;2022-10-17T09:55:33;25.33;;;22.93;;
15340;SDS011;7770;52.158;5.372;2022-10-17T10:01:29;25.70;;;22.97;;
15340;SDS011;7770;52.158;5.372;2022-10-17T10:04:16;25.93;;;23.37;;
15340;SDS011;7770;52.158;5.372;2022-10-17T10:07:03;23.53;;;21.43;;
15340;SDS011;7770;52.158;5.372;2022-10-17T10:09:51;24.30;;;22.10;;
15340;SDS011;7770;52.158;5.372;2022-10-17T10:12:38;24.20;;;21.93;;
15340;SDS011;7770;52.158;5.372;2022-10-17T10:15:31;23.97;;;21.77;;
15340;SDS011;7770;52.158;5.372;2022-10-17T10:21:12;22.87;;;20.80;;
15340;SDS011;7770;52.158;5.372;2022-10-17T10:24:13;22.53;;;20.30;;
15340;SDS011;7770;52.158;5.372;2022-10-17T10:27:00;19.93;;;18.13;;
15340;SDS011;7770;52.158;5.372;2022-10-17T10:29:48;20.43;;;18.60;;
15340;SDS011;7770;52.158;5.372;2022-10-17T10:32:36;21.50;;;19.43;;
15340;SDS011;7770;52.158;5.372;2022-10-17T10:35:30;20.60;;;18.70;;
15340;SDS011;7770;52.158;5.372;2022-10-17T10:38:21;21.40;;;19.60;;
15340;SDS011;7770;52.158;5.372;2022-10-17T10:41:08;20.97;;;19.17;;
15340;SDS011;7770;52.158;5.372;2022-10-17T10:43:55;19.73;;;18.13;;
15340;SDS011;7770;52.158;5.372;2022-10-17T10:46:42;18.83;;;17.17;;
15340;SDS011;7770;52.158;5.372;2022-10-17T10:49:29;19.90;;;18.10;;
15340;SDS011;7770;52.158;5.372;2022-10-17T10:52:19;18.73;;;17.03;;
15340;SDS011;7770;52.158;5.372;2022-10-17T10:55:23;19.00;;;17.33;;
15340;SDS011;7770;52.158;5.372;2022-10-17T11:01:47;17.73;;;16.17;;
15340;SDS011;7770;52.158;5.372;2022-10-17T11:04:46;16.70;;;15.40;;
15340;SDS011;7770;52.158;5.372;2022-10-17T11:07:52;14.40;;;13.30;;
15340;SDS011;7770;52.158;5.372;2022-10-17T11:11:02;13.20;;;12.10;;
15340;SDS011;7770;52.158;5.372;2022-10-17T11:14:18;14.60;;;13.30;;
15340;SDS011;7770;52.158;5.372;2022-10-17T11:24:07;14.70;;;13.50;;
15340;SDS011;7770;52.158;5.372;2022-10-17T11:27:05;14.83;;;13.63;;
15340;SDS011;7770;52.158;5.372;2022-10-17T11:29:52;15.40;;;14.20;;
15340;SDS011;7770;52.158;5.372;2022-10-17T11:32:48;16.50;;;15.10;;
15340;SDS011;7770;52.158;5.372;2022-10-17T11:35:43;15.83;;;14.47;;
15340;SDS011;7770;52.158;5.372;2022-10-17T11:38:35;15.70;;;14.17;;
15340;SDS011;7770;52.158;5.372;2022-10-17T11:44:26;16.27;;;14.97;;
15340;SDS011;7770;52.158;5.372;2022-10-17T11:50:39;18.50;;;16.87;;
15340;SDS011;7770;52.158;5.372;2022-10-17T11:53:35;18.57;;;16.90;;
15340;SDS011;7770;52.158;5.372;2022-10-17T11:56:41;17.73;;;16.17;;
15340;SDS011;7770;52.158;5.372;2022-10-17T12:09:50;19.37;;;17.67;;
15340;SDS011;7770;52.158;5.372;2022-10-17T12:12:52;18.83;;;17.33;;
15340;SDS011;7770;52.158;5.372;2022-10-17T12:15:38;19.33;;;17.63;;
15340;SDS011;7770;52.158;5.372;2022-10-17T12:18:24;18.20;;;16.70;;
15340;SDS011;7770;52.158;5.372;2022-10-17T12:21:14;18.00;;;16.60;;
15340;SDS011;7770;52.158;5.372;2022-10-17T12:24:00;18.67;;;17.20;;
15340;SDS011;7770;52.158;5.372;2022-10-17T12:26:46;19.17;;;17.40;;
15340;SDS011;7770;52.158;5.372;2022-10-17T12:29:32;18.33;;;16.83;;
15340;SDS011;7770;52.158;5.372;2022-10-17T12:32:18;18.07;;;16.53;;
15340;SDS011;7770;52.158;5.372;2022-10-17T12:35:13;17.87;;;16.50;;
15340;SDS011;7770;52.158;5.372;2022-10-17T12:41:01;16.37;;;14.97;;
15340;SDS011;7770;52.158;5.372;2022-10-17T12:43:52;9.30;;;8.50;;
15340;SDS011;7770;52.158;5.372;2022-10-17T12:46:43;8.70;;;7.90;;
15340;SDS011;7770;52.158;5.372;2022-10-17T12:55:24;7.57;;;6.87;;
15340;SDS011;7770;52.158;5.372;2022-10-17T12:58:11;6.70;;;6.20;;
15340;SDS011;7770;52.158;5.372;2022-10-17T13:01:00;7.47;;;6.83;;
15340;SDS011;7770;52.158;5.372;2022-10-17T13:03:48;7.67;;;7.00;;
15340;SDS011;7770;52.158;5.372;2022-10-17T13:06:50;7.40;;;6.70;;
15340;SDS011;7770;52.158;5.372;2022-10-17T13:09:41;8.10;;;7.40;;
15340;SDS011;7770;52.158;5.372;2022-10-17T13:12:29;8.30;;;7.70;;
15340;SDS011;7770;52.158;5.372;2022-10-17T13:15:20;8.00;;;7.30;;
15340;SDS011;7770;52.158;5.372;2022-10-17T13:18:12;8.47;;;7.67;;
15340;SDS011;7770;52.158;5.372;2022-10-17T13:21:14;8.83;;;7.93;;
15340;SDS011;7770;52.158;5.372;2022-10-17T13:24:05;8.47;;;7.60;;
15340;SDS011;7770;52.158;5.372;2022-10-17T13:27:22;9.30;;;8.43;;
15340;SDS011;7770;52.158;5.372;2022-10-17T13:33:26;9.27;;;8.47;;
15340;SDS011;7770;52.158;5.372;2022-10-17T13:36:20;9.47;;;8.57;;
15340;SDS011;7770;52.158;5.372;2022-10-17T13:39:06;8.63;;;7.70;;
15340;SDS011;7770;52.158;5.372;2022-10-17T13:41:55;9.60;;;8.67;;
15340;SDS011;7770;52.158;5.372;2022-10-17T13:44:42;9.90;;;9.00;;
15340;SDS011;7770;52.158;5.372;2022-10-17T13:47:29;10.20;;;9.40;;
15340;SDS011;7770;52.158;5.372;2022-10-17T13:50:26;10.17;;;9.27;;
15340;SDS011;7770;52.158;5.372;2022-10-17T13:56:05;11.20;;;10.17;;
15340;SDS011;7770;52.158;5.372;2022-10-17T13:58:55;11.20;;;10.30;;
15340;SDS011;7770;52.158;5.372;2022-10-17T14:01:44;12.07;;;11.07;;
15340;SDS011;7770;52.158;5.372;2022-10-17T14:04:33;12.73;;;11.77;;
15340;SDS011;7770;52.158;5.372;2022-10-17T14:07:22;12.83;;;11.83;;
15340;SDS011;7770;52.158;5.372;2022-10-17T14:10:23;14.30;;;13.17;;
15340;SDS011;7770;52.158;5.372;2022-10-17T14:13:22;15.33;;;13.77;;
15340;SDS011;7770;52.158;5.372;2022-10-17T14:16:11;14.83;;;13.53;;
15340;SDS011;7770;52.158;5.372;2022-10-17T14:18:57;15.67;;;14.37;;
15340;SDS011;7770;52.158;5.372;2022-10-17T14:21:46;15.40;;;13.97;;
15340;SDS011;7770;52.158;5.372;2022-10-17T14:24:33;15.53;;;14.23;;
15340;SDS011;7770;52.158;5.372;2022-10-17T14:27:33;15.40;;;14.23;;
15340;SDS011;7770;52.158;5.372;2022-10-17T14:33:26;15.50;;;14.20;;
15340;SDS011;7770;52.158;5.372;2022-10-17T14:36:16;16.00;;;14.40;;
15340;SDS011;7770;52.158;5.372;2022-10-17T14:39:02;16.13;;;14.63;;
15340;SDS011;7770;52.158;5.372;2022-10-17T14:41:52;15.90;;;14.30;;
15340;SDS011;7770;52.158;5.372;2022-10-17T14:44:38;15.67;;;14.30;;
15340;SDS011;7770;52.158;5.372;2022-10-17T14:47:25;15.73;;;14.20;;
15340;SDS011;7770;52.158;5.372;2022-10-17T14:53:02;15.73;;;14.33;;
15340;SDS011;7770;52.158;5.372;2022-10-17T14:55:55;16.60;;;15.10;;
15340;SDS011;7770;52.158;5.372;2022-10-17T14:58:44;16.87;;;15.47;;
15340;SDS011;7770;52.158;5.372;2022-10-17T15:01:31;17.00;;;15.33;;
15340;SDS011;7770;52.158;5.372;2022-10-17T15:04:18;17.27;;;15.77;;
15340;SDS011;7770;52.158;5.372;2022-10-17T15:07:04;17.73;;;16.23;;
15340;SDS011;7770;52.158;5.372;2022-10-17T15:09:51;17.00;;;15.47;;
15340;SDS011;7770;52.158;5.372;2022-10-17T15:12:38;16.70;;;15.20;;
15340;SDS011;7770;52.158;5.372;2022-10-17T15:15:24;18.10;;;16.37;;
15340;SDS011;7770;52.158;5.372;2022-10-17T15:18:11;20.07;;;18.03;;
15340;SDS011;7770;52.158;5.372;2022-10-17T15:20:58;20.23;;;18.50;;
15340;SDS011;7770;52.158;5.372;2022-10-17T15:23:44;21.90;;;19.80;;
15340;SDS011;7770;52.158;5.372;2022-10-17T15:26:31;19.77;;;17.80;;
15340;SDS011;7770;52.158;5.372;2022-10-17T15:29:19;18.67;;;16.93;;
15340;SDS011;7770;52.158;5.372;2022-10-17T15:32:05;19.90;;;18.23;;
15340;SDS011;7770;52.158;5.372;2022-10-17T15:34:51;20.30;;;18.60;;
15340;SDS011;7770;52.158;5.372;2022-10-17T15:37:37;19.47;;;17.60;;
15340;SDS011;7770;52.158;5.372;2022-10-17T15:40:25;18.63;;;16.97;;
15340;SDS011;7770;52.158;5.372;2022-10-17T15:43:14;18.70;;;16.90;;
15340;SDS011;7770;52.158;5.372;2022-10-17T15:46:00;25.80;;;23.53;;
15340;SDS011;7770;52.158;5.372;2022-10-17T15:48:46;19.63;;;17.83;;
15340;SDS011;7770;52.158;5.372;2022-10-17T15:51:33;19.97;;;18.10;;
15340;SDS011;7770;52.158;5.372;2022-10-17T15:54:19;20.10;;;18.00;;
15340;SDS011;7770;52.158;5.372;2022-10-17T15:57:05;18.20;;;16.47;;
15340;SDS011;7770;52.158;5.372;2022-10-17T15:59:51;19.60;;;17.67;;
15340;SDS011;7770;52.158;5.372;2022-10-17T16:02:38;22.20;;;19.67;;
15340;SDS011;7770;52.158;5.372;2022-10-17T16:05:24;19.87;;;17.77;;
15340;SDS011;7770;52.158;5.372;2022-10-17T16:08:11;25.20;;;22.67;;
15340;SDS011;7770;52.158;5.372;2022-10-17T16:10:57;18.50;;;16.70;;
15340;SDS011;7770;52.158;5.372;2022-10-17T16:13:48;20.53;;;18.53;;
15340;SDS011;7770;52.158;5.372;2022-10-17T16:16:37;19.43;;;17.40;;
15340;SDS011;7770;52.158;5.372;2022-10-17T16:19:24;21.73;;;19.40;;
15340;SDS011;7770;52.158;5.372;2022-10-17T16:22:19;22.80;;;20.40;;
15340;SDS011;7770;52.158;5.372;2022-10-17T16:25:23;20.67;;;18.67;;
15340;SDS011;7770;52.158;5.372;2022-10-17T16:28:11;26.13;;;23.03;;
15340;SDS011;7770;52.158;5.372;2022-10-17T16:30:57;24.33;;;20.33;;
15340;SDS011;7770;52.158;5.372;2022-10-17T16:33:43;22.33;;;20.03;;
15340;SDS011;7770;52.158;5.372;2022-10-17T16:36:29;20.30;;;18.03;;
15340;SDS011;7770;52.158;5.372;2022-10-17T16:39:15;20.90;;;18.67;;
15340;SDS011;7770;52.158;5.372;2022-10-17T16:42:01;54.07;;;25.33;;
15340;SDS011;7770;52.158;5.372;2022-10-17T16:44:48;42.57;;;23.07;;
15340;SDS011;7770;52.158;5.372;2022-10-17T16:47:35;38.60;;;20.10;;
15340;SDS011;7770;52.158;5.372;2022-10-17T16:50:21;69.03;;;25.97;;
15340;SDS011;7770;52.158;5.372;2022-10-17T16:53:07;91.93;;;41.13;;
15340;SDS011;7770;52.158;5.372;2022-10-17T16:56:00;22.30;;;17.20;;
15340;SDS011;7770;52.158;5.372;2022-10-17T16:58:47;19.10;;;17.20;;
15340;SDS011;7770;52.158;5.372;2022-10-17T17:01:34;16.30;;;14.70;;
15340;SDS011;7770;52.158;5.372;2022-10-17T17:04:20;15.90;;;14.50;;
15340;SDS011;7770;52.158;5.372;2022-10-17T17:07:06;15.77;;;14.10;;
15340;SDS011;7770;52.158;5.372;2022-10-17T17:09:52;17.43;;;13.73;;
15340;SDS011;7770;52.158;5.372;2022-10-17T17:12:39;13.97;;;12.50;;
15340;SDS011;7770;52.158;5.372;2022-10-17T17:15:25;14.20;;;12.67;;
15340;SDS011;7770;52.158;5.372;2022-10-17T17:18:11;13.90;;;12.13;;
15340;SDS011;7770;52.158;5.372;2022-10-17T17:20:59;13.87;;;12.37;;
15340;SDS011;7770;52.158;5.372;2022-10-17T17:23:46;17.13;;;13.13;;
15340;SDS011;7770;52.158;5.372;2022-10-17T17:26:33;18.67;;;15.00;;
15340;SDS011;7770;52.158;5.372;2022-10-17T17:29:23;19.23;;;13.93;;
15340;SDS011;7770;52.158;5.372;2022-10-17T17:32:09;21.87;;;16.00;;
15340;SDS011;7770;52.158;5.372;2022-10-17T17:34:55;29.97;;;19.70;;
15340;SDS011;7770;52.158;5.372;2022-10-17T17:37:41;20.67;;;15.47;;
15340;SDS011;7770;52.158;5.372;2022-10-17T17:40:27;19.40;;;15.80;;
15340;SDS011;7770;52.158;5.372;2022-10-17T17:43:13;21.07;;;17.30;;
15340;SDS011;7770;52.158;5.372;2022-10-17T17:46:00;22.67;;;18.60;;
15340;SDS011;7770;52.158;5.372;2022-10-17T17:48:47;21.00;;;18.10;;
15340;SDS011;7770;52.158;5.372;2022-10-17T17:51:34;18.90;;;17.07;;
15340;SDS011;7770;52.158;5.372;2022-10-17T17:54:21;19.63;;;17.13;;
15340;SDS011;7770;52.158;5.372;2022-10-17T17:57:07;20.63;;;18.47;;
15340;SDS011;7770;52.158;5.372;2022-10-17T17:59:53;22.17;;;19.80;;
15340;SDS011;7770;52.158;5.372;2022-10-17T18:02:39;21.60;;;19.30;;
15340;SDS011;7770;52.158;5.372;2022-10-17T18:05:26;22.10;;;20.10;;
15340;SDS011;7770;52.158;5.372;2022-10-17T18:08:12;23.13;;;20.73;;
15340;SDS011;7770;52.158;5.372;2022-10-17T18:10:58;24.30;;;22.03;;
15340;SDS011;7770;52.158;5.372;2022-10-17T18:13:44;25.27;;;22.83;;
15340;SDS011;7770;52.158;5.372;2022-10-17T18:16:31;25.97;;;23.53;;
15340;SDS011;7770;52.158;5.372;2022-10-17T18:19:19;26.83;;;24.30;;
15340;SDS011;7770;52.158;5.372;2022-10-17T18:22:07;25.90;;;23.30;;
15340;SDS011;7770;52.158;5.372;2022-10-17T18:24:54;25.63;;;23.23;;
15340;SDS011;7770;52.158;5.372;2022-10-17T18:27:40;25.53;;;22.93;;